Time;durP1;ratioP1;P1;durP2;ratioP2;P2;SDS_P1;SDS_P2;PMS_P1;PMS_P2;Temp;Humidity;BMP_temperature;BMP_pressure;BME280_temperature;BME280_humidity;BME280_pressure;Samples;Min_cycle;Max_cycle;Signal;HPM_P1;HPM_P2
2023/05/28 00:00:01;;;;;;;;;;;;;;;16.77;46.85;100485.75;5085806;28;1170;-55
2023/05/28 00:02:26;;;;;;;;;;;;;;;16.66;46.48;100483.31;5099342;28;1120;-54
2023/05/28 00:04:52;;;;;;;;;;;;;;;17.48;47.58;100476.53;5079339;28;1142;-53
2023/05/28 00:07:17;;;;;;;;;;;;;;;16.91;48.10;100485.97;5091191;28;1985;-53
2023/05/28 00:09:43;;;;;;;;;;;;;;;16.67;47.70;100485.78;5093347;28;1055;-53
2023/05/28 00:12:08;;;;;;;;;;;;;;;16.73;47.56;100478.34;5079016;28;901;-52
2023/05/28 00:14:34;;;;;;;;;;;;;;;17.07;48.22;100478.47;5077859;28;1106;-54
2023/05/28 00:17:00;;;;;;;;;;;;;;;16.75;47.75;100476.13;5078803;28;1055;-55
2023/05/28 00:19:25;;;;;;;;;;;;;;;16.69;46.93;100475.34;5097901;28;1328;-53
2023/05/28 00:21:51;;;;;;;;;;;;;;;16.60;46.67;100479.75;5099090;28;1089;-53
2023/05/28 00:24:16;;;;;;;;;;;;;;;16.55;46.29;100477.03;5085431;28;1146;-51
2023/05/28 00:26:42;;;;;;;;;;;;;;;17.30;47.70;100487.09;5085924;28;1982;-54
2023/05/28 00:29:07;;;;;;;;;;;;;;;16.77;48.07;100476.66;5078355;28;1123;-54
2023/05/28 00:31:33;;;;;;;;;;;;;;;16.58;47.52;100471.00;5090376;28;1031;-54
2023/05/28 00:33:59;;;;;;;;;;;;;;;16.55;46.55;100471.53;5097894;28;1194;-53
2023/05/28 00:36:25;;;;;;;;;;;;;;;16.49;46.42;100472.69;5068940;28;1306;-54
2023/05/28 00:38:50;;;;;;;;;;;;;;;16.52;45.76;100472.09;5078026;28;988;-54
2023/05/28 00:41:20;;;;;;;;;;;;;;;16.77;46.71;100477.50;5078208;28;1067;-54
2023/05/28 00:43:46;;;;;;;;;;;;;;;17.22;48.03;100473.97;5078807;28;1221;-53
2023/05/28 00:46:11;;;;;;;;;;;;;;;16.73;48.02;100481.91;5079773;28;1984;-52
2023/05/28 00:48:38;;;;;;;;;;;;;;;16.58;47.37;100479.25;5098087;28;1029;-54
2023/05/28 00:51:03;;;;;;;;;;;;;;;16.56;46.72;100478.69;5098123;28;1053;-54
2023/05/28 00:53:29;;;;;;;;;;;;;;;16.33;46.20;100453.53;5085049;28;1154;-54
2023/05/28 00:55:55;;;;;;;;;;;;;;;16.82;47.17;100468.41;5098108;28;1125;-54
2023/05/28 00:58:21;;;;;;;;;;;;;;;16.85;47.76;100469.78;5079597;28;1210;-53
2023/05/28 01:00:47;;;;;;;;;;;;;;;16.63;47.21;100465.47;5078126;28;1224;-53
2023/05/28 01:03:12;;;;;;;;;;;;;;;16.56;47.38;100468.53;5059941;28;2094;-54
2023/05/28 01:05:38;;;;;;;;;;;;;;;17.02;48.03;100463.94;5090315;28;1115;-53
2023/05/28 01:08:05;;;;;;;;;;;;;;;16.69;47.75;100469.84;5097401;28;1910;-54
2023/05/28 01:10:31;;;;;;;;;;;;;;;16.59;47.30;100467.13;5097483;28;1019;-54
2023/05/28 01:12:56;;;;;;;;;;;;;;;16.54;46.52;100453.44;5083724;28;1201;-53
2023/05/28 01:15:23;;;;;;;;;;;;;;;17.96;47.44;100454.69;5079934;28;1039;-54
2023/05/28 01:17:52;;;;;;;;;;;;;;;16.98;48.53;100452.69;5060194;28;1098;-53
2023/05/28 01:20:19;;;;;;;;;;;;;;;16.85;47.73;100447.81;5047285;28;1359;-56
2023/05/28 01:22:45;;;;;;;;;;;;;;;16.64;47.15;100453.41;5078836;28;1134;-53
2023/05/28 01:25:12;;;;;;;;;;;;;;;16.57;46.62;100458.38;5097770;28;1031;-55
2023/05/28 01:27:39;;;;;;;;;;;;;;;17.84;47.77;100455.06;5059497;28;1906;-55
2023/05/28 01:30:08;;;;;;;;;;;;;;;17.15;48.84;100454.22;5090278;28;1054;-55
2023/05/28 01:32:34;;;;;;;;;;;;;;;16.83;48.22;100456.34;5046637;28;1310;-55
2023/05/28 01:35:00;;;;;;;;;;;;;;;16.74;47.22;100458.00;5090029;28;1135;-55
2023/05/28 01:37:26;;;;;;;;;;;;;;;16.69;46.90;100455.28;5078359;28;1040;-53
2023/05/28 01:39:51;;;;;;;;;;;;;;;16.58;46.97;100451.78;5097631;28;1047;-54
2023/05/28 01:42:17;;;;;;;;;;;;;;;17.85;48.16;100458.63;5072532;28;1030;-54
2023/05/28 01:44:43;;;;;;;;;;;;;;;17.07;48.74;100451.00;5058998;28;1106;-55
2023/05/28 01:47:10;;;;;;;;;;;;;;;16.88;47.82;100452.72;5058849;28;1975;-54
2023/05/28 01:49:36;;;;;;;;;;;;;;;16.75;47.12;100449.50;5055828;28;1174;-52
2023/05/28 01:52:03;;;;;;;;;;;;;;;16.68;46.68;100457.22;5053056;28;1261;-55
2023/05/28 01:54:29;;;;;;;;;;;;;;;16.56;46.21;100467.69;5065343;28;1317;-55
2023/05/28 01:56:54;;;;;;;;;;;;;;;17.27;47.95;100466.50;5042247;28;1250;-55
2023/05/28 01:59:20;;;;;;;;;;;;;;;16.81;47.92;100472.25;5071505;28;1895;-55
2023/05/28 02:01:46;;;;;;;;;;;;;;;16.73;47.16;100467.34;5058384;28;1123;-55
2023/05/28 02:04:13;;;;;;;;;;;;;;;16.60;46.71;100460.56;5058785;28;1302;-55
2023/05/28 02:06:40;;;;;;;;;;;;;;;16.56;46.42;100456.72;5071843;28;1898;-55
2023/05/28 02:09:06;;;;;;;;;;;;;;;17.56;47.61;100456.69;5058705;28;1290;-55
2023/05/28 02:11:32;;;;;;;;;;;;;;;17.22;48.59;100457.47;5083806;28;1533;-54
2023/05/28 02:13:58;;;;;;;;;;;;;;;16.89;47.78;100468.13;5065431;28;1174;-54
2023/05/28 02:16:27;;;;;;;;;;;;;;;16.75;47.23;100456.91;5078916;28;1109;-54
2023/05/28 02:18:54;;;;;;;;;;;;;;;16.67;46.60;100468.50;5065142;28;1229;-54
2023/05/28 02:21:21;;;;;;;;;;;;;;;16.52;46.57;100467.47;5078664;28;1141;-53
2023/05/28 02:23:47;;;;;;;;;;;;;;;16.45;46.06;100471.59;5094291;28;1070;-54
2023/05/28 02:26:15;;;;;;;;;;;;;;;16.39;45.99;100471.59;5067546;28;1902;-54
2023/05/28 02:28:43;;;;;;;;;;;;;;;17.07;47.37;100474.91;5096396;28;1154;-53
2023/05/28 02:31:09;;;;;;;;;;;;;;;16.62;47.29;100472.09;5096567;28;1050;-54
2023/05/28 02:33:36;;;;;;;;;;;;;;;18.06;48.52;100484.00;5081291;28;1046;-53
2023/05/28 02:36:02;;;;;;;;;;;;;;;17.26;49.22;100475.03;5076506;28;890;-54
2023/05/28 02:38:27;;;;;;;;;;;;;;;16.89;48.59;100481.88;5077793;28;979;-52
2023/05/28 02:40:53;;;;;;;;;;;;;;;16.77;47.57;100480.25;5096473;28;1007;-54
2023/05/28 02:43:18;;;;;;;;;;;;;;;16.60;47.38;100477.03;5064677;28;1617;-53
2023/05/28 02:45:44;;;;;;;;;;;;;;;16.58;46.74;100469.06;5078305;28;1102;-54
2023/05/28 02:48:11;;;;;;;;;;;;;;;16.87;46.45;100468.38;5076130;28;1984;-54
2023/05/28 02:50:37;;;;;;;;;;;;;;;17.54;48.31;100475.38;5066720;28;1130;-54
2023/05/28 02:53:22;;;;;;;;;;;;;;;16.95;48.33;100488.97;5077959;28;1129;-54
2023/05/28 02:55:49;;;;;;;;;;;;;;;16.80;47.61;100483.53;5066864;28;1363;-55
2023/05/28 02:58:15;;;;;;;;;;;;;;;16.73;46.80;100497.53;5075717;28;1020;-55
2023/05/28 03:00:41;;;;;;;;;;;;;;;16.56;46.49;100489.66;5057669;28;1202;-55
2023/05/28 03:03:07;;;;;;;;;;;;;;;17.66;47.61;100491.53;5071517;28;1167;-55
2023/05/28 03:05:32;;;;;;;;;;;;;;;17.22;48.53;100484.94;5046532;28;1230;-55
2023/05/28 03:07:58;;;;;;;;;;;;;;;16.89;48.18;100484.63;5074254;28;1910;-55
2023/05/28 03:10:24;;;;;;;;;;;;;;;16.72;47.39;100488.50;5084400;28;1146;-55
2023/05/28 03:12:50;;;;;;;;;;;;;;;16.75;46.51;100492.63;5041012;28;1646;-55
2023/05/28 03:15:16;;;;;;;;;;;;;;;17.08;47.62;100496.59;5061071;28;1294;-55
2023/05/28 03:17:41;;;;;;;;;;;;;;;17.17;48.44;100496.00;5079584;28;1179;-52
2023/05/28 03:20:10;;;;;;;;;;;;;;;16.77;47.94;100496.72;5081888;28;1201;-54
2023/05/28 03:22:37;;;;;;;;;;;;;;;16.74;47.07;100500.00;5072300;28;1177;-55
2023/05/28 03:25:03;;;;;;;;;;;;;;;16.68;46.36;100503.91;5081431;28;1165;-55
2023/05/28 03:27:29;;;;;;;;;;;;;;;16.48;46.49;100490.22;5081413;28;1980;-54
2023/05/28 03:29:56;;;;;;;;;;;;;;;16.78;46.29;100503.03;5081856;28;1173;-55
2023/05/28 03:32:47;;;;;;;;;;;;;;;17.20;48.06;100496.22;5058570;28;1457;-54
2023/05/28 03:35:13;;;;;;;;;;;;;;;16.70;47.89;100489.88;5082963;28;1288;-55
2023/05/28 03:37:38;;;;;;;;;;;;;;;16.67;47.22;100491.25;5050490;28;1539;-57
2023/05/28 03:40:04;;;;;;;;;;;;;;;16.83;46.87;100483.78;5043629;28;1274;-64
2023/05/28 03:42:30;;;;;;;;;;;;;;;17.19;47.90;100485.53;5051552;28;1289;-61
2023/05/28 03:44:55;;;;;;;;;;;;;;;16.82;47.72;100487.63;5045693;28;1122;-57
2023/05/28 03:47:21;;;;;;;;;;;;;;;16.60;47.26;100486.06;5099076;28;1909;-61
2023/05/28 03:49:47;;;;;;;;;;;;;;;16.63;46.65;100492.13;5085715;28;932;-60
2023/05/28 03:52:13;;;;;;;;;;;;;;;17.17;47.57;100487.75;5081135;28;1253;-61
2023/05/28 03:54:47;;;;;;;;;;;;;;;16.79;47.42;100488.19;5077953;28;1274;-56
2023/05/28 03:57:13;;;;;;;;;;;;;;;16.65;47.03;100484.41;5089577;28;1114;-59
2023/05/28 03:59:38;;;;;;;;;;;;;;;16.53;46.37;100485.56;5082439;28;1135;-57
2023/05/28 04:02:04;;;;;;;;;;;;;;;16.44;46.35;100487.25;5070554;28;1283;-59
2023/05/28 04:04:30;;;;;;;;;;;;;;;17.36;46.94;100494.22;5081636;28;1061;-60
2023/05/28 04:06:56;;;;;;;;;;;;;;;16.84;47.64;100496.41;5074765;28;1975;-64
2023/05/28 04:09:21;;;;;;;;;;;;;;;16.58;47.05;100495.72;5061459;28;1213;-63
2023/05/28 04:11:47;;;;;;;;;;;;;;;17.08;47.58;100510.34;5061471;28;1322;-62
2023/05/28 04:14:13;;;;;;;;;;;;;;;17.02;48.04;100508.69;5047562;28;1272;-63
2023/05/28 04:16:39;;;;;;;;;;;;;;;16.67;47.84;100501.44;5051566;28;1140;-63
2023/05/28 04:19:05;;;;;;;;;;;;;;;16.81;47.74;100505.19;5075349;28;1093;-64
2023/05/28 04:21:31;;;;;;;;;;;;;;;17.09;48.26;100508.41;5069067;28;1059;-63
2023/05/28 04:23:57;;;;;;;;;;;;;;;16.71;47.89;100508.81;5079470;28;1087;-63
2023/05/28 04:26:23;;;;;;;;;;;;;;;16.71;47.04;100514.31;5069307;28;1976;-63
2023/05/28 04:28:50;;;;;;;;;;;;;;;17.00;47.64;100513.66;5060782;28;1109;-63
2023/05/28 04:31:16;;;;;;;;;;;;;;;16.97;48.06;100519.72;5061085;28;1246;-62
2023/05/28 04:33:46;;;;;;;;;;;;;;;16.71;47.80;100529.97;5060606;28;1151;-63
2023/05/28 04:36:13;;;;;;;;;;;;;;;16.73;46.79;100527.75;5062513;28;1190;-64
2023/05/28 04:38:39;;;;;;;;;;;;;;;16.55;46.25;100532.78;5074084;28;1001;-63
2023/05/28 04:41:05;;;;;;;;;;;;;;;17.38;47.38;100540.66;5040379;28;1403;-64
2023/05/28 04:43:33;;;;;;;;;;;;;;;17.20;47.99;100531.94;5039940;28;1301;-64
2023/05/28 04:45:59;;;;;;;;;;;;;;;16.77;47.89;100534.31;5040285;28;1388;-63
2023/05/28 04:48:25;;;;;;;;;;;;;;;16.67;47.22;100535.19;5036769;28;1906;-64
2023/05/28 04:50:51;;;;;;;;;;;;;;;16.55;46.72;100542.91;5038061;28;1373;-62
2023/05/28 04:53:17;;;;;;;;;;;;;;;16.55;46.29;100546.50;5040572;28;1175;-62
2023/05/28 04:55:44;;;;;;;;;;;;;;;16.50;46.12;100541.00;5037371;28;1186;-63
2023/05/28 04:58:09;;;;;;;;;;;;;;;17.18;47.77;100544.31;5036614;28;1388;-62
2023/05/28 05:00:36;;;;;;;;;;;;;;;17.08;48.96;100550.69;5040066;28;1258;-65
2023/05/28 05:03:01;;;;;;;;;;;;;;;17.04;49.49;100544.97;5044596;28;1182;-64
2023/05/28 05:05:28;;;;;;;;;;;;;;;16.92;49.89;100549.97;5036809;28;1159;-63
2023/05/28 05:07:54;;;;;;;;;;;;;;;16.73;50.46;100555.22;5036824;28;1984;-62
2023/05/28 05:10:20;;;;;;;;;;;;;;;16.65;50.67;100553.88;5036811;28;1228;-63
2023/05/28 05:12:48;;;;;;;;;;;;;;;16.57;51.11;100536.03;5041196;28;1213;-63
2023/05/28 05:15:13;;;;;;;;;;;;;;;16.51;51.40;100544.56;5036712;28;1538;-60
2023/05/28 05:17:40;;;;;;;;;;;;;;;16.43;51.82;100540.47;5036423;28;2081;-67
2023/05/28 05:20:06;;;;;;;;;;;;;;;16.36;52.12;100535.28;5036413;28;1336;-62
2023/05/28 05:22:33;;;;;;;;;;;;;;;16.22;52.55;100528.72;5039686;28;1173;-63
2023/05/28 05:25:00;;;;;;;;;;;;;;;16.20;52.42;100528.16;5041482;28;1264;-62
2023/05/28 05:27:25;;;;;;;;;;;;;;;16.12;52.92;100529.56;5039916;28;1890;-62
2023/05/28 05:29:52;;;;;;;;;;;;;;;16.05;52.86;100534.53;5049658;28;1178;-61
2023/05/28 05:32:17;;;;;;;;;;;;;;;16.02;52.97;100546.84;5041619;28;1332;-63
2023/05/28 05:34:43;;;;;;;;;;;;;;;15.95;53.30;100546.31;5047862;28;1204;-58
2023/05/28 05:37:24;;;;;;;;;;;;;;;15.90;53.27;100538.09;5037908;28;1138;-62
2023/05/28 05:40:12;;;;;;;;;;;;;;;15.86;53.44;100546.03;5037217;28;1209;-63
2023/05/28 05:43:13;;;;;;;;;;;;;;;16.64;52.27;100544.00;5010151;28;1197;-60
2023/05/28 05:45:39;;;;;;;;;;;;;;;17.21;51.27;100544.59;5027964;28;1228;-61
2023/05/28 05:48:05;;;;;;;;;;;;;;;16.52;53.29;100537.97;5024319;28;1917;-61
2023/05/28 05:50:31;;;;;;;;;;;;;;;16.31;53.66;100543.50;5033084;28;1155;-64
2023/05/28 05:52:59;;;;;;;;;;;;;;;16.20;53.87;100547.38;5044981;28;1127;-63
2023/05/28 05:55:24;;;;;;;;;;;;;;;16.12;53.75;100551.50;5039422;28;1165;-63
2023/05/28 05:57:50;;;;;;;;;;;;;;;16.04;54.01;100563.84;5035523;28;1194;-60
2023/05/28 06:00:16;;;;;;;;;;;;;;;15.98;54.03;100559.47;5034408;28;1212;-60
2023/05/28 06:02:47;;;;;;;;;;;;;;;15.89;54.07;100559.22;5026903;28;1492;-63
2023/05/28 06:05:31;;;;;;;;;;;;;;;16.80;53.04;100558.47;5045708;28;1273;-63
2023/05/28 06:08:23;;;;;;;;;;;;;;;17.02;52.66;100560.88;5028274;28;1910;-59
2023/05/28 06:11:10;;;;;;;;;;;;;;;16.47;53.98;100563.53;5032023;28;1321;-62
2023/05/28 06:13:36;;;;;;;;;;;;;;;16.27;54.54;100569.88;5042763;28;1166;-64
2023/05/28 06:16:02;;;;;;;;;;;;;;;16.14;54.35;100567.69;5025130;28;1318;-62
2023/05/28 06:18:29;;;;;;;;;;;;;;;16.05;54.71;100573.72;5037138;28;1032;-64
2023/05/28 06:20:55;;;;;;;;;;;;;;;15.97;54.67;100570.72;5035575;28;1242;-63
2023/05/28 06:23:21;;;;;;;;;;;;;;;15.93;54.45;100569.63;5035433;28;1119;-61
2023/05/28 06:25:46;;;;;;;;;;;;;;;15.83;54.76;100570.44;5039949;28;1215;-67
2023/05/28 06:28:13;;;;;;;;;;;;;;;17.02;53.13;100565.56;5035227;28;1977;-64
2023/05/28 06:30:39;;;;;;;;;;;;;;;17.14;52.76;100563.31;5035382;28;1238;-63
2023/05/28 06:33:06;;;;;;;;;;;;;;;16.55;54.26;100560.22;5035488;28;1342;-62
2023/05/28 06:35:31;;;;;;;;;;;;;;;16.31;54.64;100570.94;5035273;28;1107;-65
2023/05/28 06:37:57;;;;;;;;;;;;;;;16.19;54.92;100570.44;5029824;28;1346;-64
2023/05/28 06:40:22;;;;;;;;;;;;;;;16.04;54.80;100569.34;5028741;28;1327;-63
2023/05/28 06:42:49;;;;;;;;;;;;;;;15.96;55.15;100564.41;5025817;28;1415;-63
2023/05/28 06:45:32;;;;;;;;;;;;;;;15.87;55.03;100563.31;5035070;28;1334;-63
2023/05/28 06:48:00;;;;;;;;;;;;;;;17.08;53.63;100569.94;5020927;28;1922;-61
2023/05/28 06:50:26;;;;;;;;;;;;;;;16.84;54.15;100576.03;5024687;28;1571;-64
2023/05/28 06:52:53;;;;;;;;;;;;;;;16.45;54.97;100570.38;5029280;28;1265;-62
2023/05/28 06:55:19;;;;;;;;;;;;;;;16.22;55.19;100567.13;5034936;28;1309;-64
2023/05/28 06:58:03;;;;;;;;;;;;;;;16.06;55.35;100575.38;5026723;28;1315;-63
2023/05/28 07:00:49;;;;;;;;;;;;;;;15.98;55.13;100575.94;5029965;28;1143;-62
2023/05/28 07:03:25;;;;;;;;;;;;;;;15.97;54.88;100574.28;5036963;28;1280;-65
2023/05/28 07:05:59;;;;;;;;;;;;;;;16.85;54.24;100574.13;5026426;28;1055;-61
2023/05/28 07:08:25;;;;;;;;;;;;;;;17.16;53.69;100568.53;5035689;28;1918;-62
2023/05/28 07:10:51;;;;;;;;;;;;;;;16.54;54.83;100575.03;5034563;28;1116;-62
2023/05/28 07:13:17;;;;;;;;;;;;;;;16.30;55.27;100574.81;5035547;28;1218;-63
2023/05/28 07:15:42;;;;;;;;;;;;;;;16.18;55.27;100566.84;5025282;28;1575;-62
2023/05/28 07:18:08;;;;;;;;;;;;;;;16.10;55.40;100566.59;5019666;28;1316;-61
2023/05/28 07:20:34;;;;;;;;;;;;;;;16.01;55.32;100567.16;5030668;28;1058;-65
2023/05/28 07:23:19;;;;;;;;;;;;;;;16.01;55.60;100566.34;5028406;28;1139;-63
2023/05/28 07:25:45;;;;;;;;;;;;;;;17.40;53.31;100569.50;5030770;28;1153;-65
2023/05/28 07:28:10;;;;;;;;;;;;;;;16.89;54.58;100564.25;5026204;28;1988;-63
2023/05/28 07:30:37;;;;;;;;;;;;;;;16.49;55.47;100566.00;5034083;28;1162;-64
2023/05/28 07:33:05;;;;;;;;;;;;;;;16.29;55.53;100566.88;5034741;28;1211;-63
2023/05/28 07:35:31;;;;;;;;;;;;;;;16.10;55.92;100563.84;5028411;28;1125;-64
2023/05/28 07:37:56;;;;;;;;;;;;;;;16.11;55.75;100560.03;5035618;28;1066;-61
2023/05/28 07:40:22;;;;;;;;;;;;;;;16.02;55.40;100562.47;5034486;28;1303;-64
2023/05/28 07:42:49;;;;;;;;;;;;;;;15.96;55.62;100564.41;5023145;28;1291;-63
2023/05/28 07:45:15;;;;;;;;;;;;;;;15.90;55.32;100565.50;5014223;28;1281;-64
2023/05/28 07:47:41;;;;;;;;;;;;;;;15.81;55.46;100558.91;5016325;28;1902;-64
2023/05/28 07:50:36;;;;;;;;;;;;;;;17.25;54.12;100566.81;5029723;28;1329;-61
2023/05/28 07:53:16;;;;;;;;;;;;;;;16.88;54.93;100568.91;5015709;28;1069;-63
2023/05/28 07:55:42;;;;;;;;;;;;;;;16.45;55.77;100565.72;5014667;28;1322;-61
2023/05/28 07:58:08;;;;;;;;;;;;;;;16.24;55.87;100559.44;5015944;28;1286;-66
2023/05/28 08:00:36;;;;;;;;;;;;;;;16.10;56.10;100574.81;5022863;28;1397;-61
2023/05/28 08:03:04;;;;;;;;;;;;;;;16.02;56.19;100570.69;5049282;28;1312;-56
2023/05/28 08:05:38;;;;;;;;;;;;;;;15.91;55.86;100561.69;5038143;28;1233;-66
2023/05/28 08:08:04;;;;;;;;;;;;;;;15.87;55.71;100560.56;5037454;28;1913;-62
2023/05/28 08:10:30;;;;;;;;;;;;;;;17.04;55.08;100555.94;5037874;28;1190;-65
2023/05/28 08:12:55;;;;;;;;;;;;;;;16.85;55.32;100563.97;5037811;28;1168;-64
2023/05/28 08:15:22;;;;;;;;;;;;;;;16.42;56.41;100567.13;5043399;28;1173;-61
2023/05/28 08:17:49;;;;;;;;;;;;;;;16.23;56.07;100563.31;5037824;28;1289;-63
2023/05/28 08:20:17;;;;;;;;;;;;;;;16.07;56.33;100565.22;5037483;28;1170;-63
2023/05/28 08:22:51;;;;;;;;;;;;;;;16.01;55.97;100564.41;5036289;28;1392;-64
2023/05/28 08:25:16;;;;;;;;;;;;;;;15.94;56.16;100557.56;5029489;28;1598;-63
2023/05/28 08:27:43;;;;;;;;;;;;;;;15.86;56.21;100565.22;5036995;28;1952;-62
2023/05/28 08:30:09;;;;;;;;;;;;;;;15.86;55.82;100564.41;5026965;28;1636;-65
2023/05/28 08:32:42;;;;;;;;;;;;;;;17.23;55.16;100563.53;5023034;28;1291;-63
2023/05/28 08:35:08;;;;;;;;;;;;;;;17.08;55.28;100562.53;5044888;28;1269;-63
2023/05/28 08:37:33;;;;;;;;;;;;;;;16.57;56.38;100558.00;5027269;28;1068;-63
2023/05/28 08:40:22;;;;;;;;;;;;;;;16.26;56.57;100560.00;5026351;28;1441;-62
2023/05/28 08:42:49;;;;;;;;;;;;;;;16.15;56.62;100561.13;5019408;28;1459;-63
2023/05/28 08:45:16;;;;;;;;;;;;;;;16.02;56.27;100563.31;5034661;28;1367;-63
2023/05/28 08:47:46;;;;;;;;;;;;;;;15.97;56.45;100571.53;5037127;28;1975;-64
2023/05/28 08:50:17;;;;;;;;;;;;;;;15.92;56.02;100563.28;5039791;28;1313;-60
2023/05/28 08:52:55;;;;;;;;;;;;;;;16.64;56.34;100573.38;5029707;28;1615;-63
2023/05/28 08:55:21;;;;;;;;;;;;;;;17.28;55.41;100580.00;5037358;28;1107;-63
2023/05/28 08:57:52;;;;;;;;;;;;;;;16.55;56.52;100576.69;5031170;28;1122;-63
2023/05/28 09:00:18;;;;;;;;;;;;;;;16.35;56.47;100572.03;5023875;28;1249;-64
2023/05/28 09:03:07;;;;;;;;;;;;;;;16.19;56.68;100573.19;5038001;28;1303;-62
2023/05/28 09:05:37;;;;;;;;;;;;;;;16.07;56.70;100577.03;5017247;28;1142;-61
2023/05/28 09:08:07;;;;;;;;;;;;;;;16.00;56.47;100570.97;5028954;28;1914;-63
2023/05/28 09:10:33;;;;;;;;;;;;;;;15.84;56.71;100564.69;5027218;28;1157;-65
2023/05/28 09:13:00;;;;;;;;;;;;;;;16.32;56.89;100564.38;5020709;28;1338;-65
2023/05/28 09:15:26;;;;;;;;;;;;;;;17.55;55.31;100559.50;5026377;28;1169;-64
2023/05/28 09:17:52;;;;;;;;;;;;;;;16.70;56.58;100559.34;5036460;28;1246;-63
2023/05/28 09:20:25;;;;;;;;;;;;;;;16.42;56.77;100571.75;5036758;28;1167;-62
2023/05/28 09:23:01;;;;;;;;;;;;;;;16.18;57.16;100566.84;5030905;28;1214;-64
2023/05/28 09:25:47;;;;;;;;;;;;;;;16.13;56.68;100574.28;5013749;28;1144;-61
2023/05/28 09:28:16;;;;;;;;;;;;;;;15.98;56.74;100573.19;5023950;28;1913;-59
2023/05/28 09:30:42;;;;;;;;;;;;;;;15.90;56.59;100562.75;5035140;28;1059;-62
2023/05/28 09:33:08;;;;;;;;;;;;;;;16.46;56.81;100561.88;5025573;28;1274;-65
2023/05/28 09:35:33;;;;;;;;;;;;;;;17.55;55.25;100567.75;5029873;28;920;-63
2023/05/28 09:38:08;;;;;;;;;;;;;;;16.73;56.98;100568.94;5024421;28;896;-60
2023/05/28 09:40:57;;;;;;;;;;;;;;;16.46;57.06;100563.81;5036415;28;901;-60
2023/05/28 09:43:29;;;;;;;;;;;;;;;16.28;56.94;100556.97;5021078;28;1277;-61
2023/05/28 09:46:07;;;;;;;;;;;;;;;16.17;56.65;100556.16;5021486;28;1322;-62
2023/05/28 09:48:33;;;;;;;;;;;;;;;16.11;56.65;100551.78;5023917;28;1910;-61
2023/05/28 09:50:59;;;;;;;;;;;;;;;15.99;56.50;100557.53;5028138;28;1372;-62
2023/05/28 09:53:25;;;;;;;;;;;;;;;15.99;56.19;100568.50;5027560;28;1609;-61
2023/05/28 09:55:50;;;;;;;;;;;;;;;15.85;56.21;100560.84;5020553;28;945;-61
2023/05/28 09:58:16;;;;;;;;;;;;;;;16.02;56.88;100557.81;5027860;28;1146;-62
2023/05/28 10:00:44;;;;;;;;;;;;;;;17.35;56.21;100555.78;5027007;28;1008;-61
2023/05/28 10:03:13;;;;;;;;;;;;;;;16.89;56.97;100556.84;5022567;28;988;-61
2023/05/28 10:05:43;;;;;;;;;;;;;;;16.44;57.55;100553.13;5021793;28;1284;-62
2023/05/28 10:08:11;;;;;;;;;;;;;;;16.32;57.15;100552.59;5020657;28;1914;-62
2023/05/28 10:10:36;;;;;;;;;;;;;;;16.20;57.04;100552.84;5025137;28;1440;-61
2023/05/28 10:13:01;;;;;;;;;;;;;;;16.08;56.78;100551.22;5022417;28;1084;-60
2023/05/28 10:15:27;;;;;;;;;;;;;;;16.14;57.19;100553.97;5029983;28;1312;-62
2023/05/28 10:17:53;;;;;;;;;;;;;;;17.45;56.08;100552.97;5035277;28;983;-63
2023/05/28 10:20:18;;;;;;;;;;;;;;;17.02;56.92;100549.09;5020476;28;1332;-64
2023/05/28 10:22:44;;;;;;;;;;;;;;;16.62;57.40;100548.94;5020083;28;1290;-65
2023/05/28 10:25:10;;;;;;;;;;;;;;;16.43;57.45;100548.72;5016818;28;1063;-65
2023/05/28 10:27:44;;;;;;;;;;;;;;;16.30;57.05;100547.38;5019911;28;1906;-64
2023/05/28 10:30:10;;;;;;;;;;;;;;;16.25;56.79;100552.88;5017256;28;1222;-64
2023/05/28 10:32:41;;;;;;;;;;;;;;;16.15;56.99;100545.47;5022573;28;1314;-62
2023/05/28 10:35:09;;;;;;;;;;;;;;;16.06;56.78;100547.94;5020783;28;1347;-64
2023/05/28 10:37:35;;;;;;;;;;;;;;;16.00;56.76;100540.00;5017762;28;1171;-64
2023/05/28 10:40:00;;;;;;;;;;;;;;;15.92;56.75;100541.34;5026862;28;1122;-62
2023/05/28 10:42:26;;;;;;;;;;;;;;;15.86;56.67;100539.72;5025682;28;1063;-63
2023/05/28 10:44:52;;;;;;;;;;;;;;;17.00;57.20;100538.38;5024660;28;1238;-64
2023/05/28 10:47:18;;;;;;;;;;;;;;;17.13;56.90;100527.91;5048229;28;1917;-63
2023/05/28 10:50:02;;;;;;;;;;;;;;;16.63;57.63;100523.13;5070051;28;1078;-63
2023/05/28 10:52:28;;;;;;;;;;;;;;;16.39;57.29;100529.22;5071218;28;1163;-64
2023/05/28 10:54:53;;;;;;;;;;;;;;;16.27;57.12;100530.63;5050750;28;1438;-66
2023/05/28 10:57:20;;;;;;;;;;;;;;;16.16;57.05;100527.91;5067641;28;1022;-65
2023/05/28 10:59:49;;;;;;;;;;;;;;;16.06;57.08;100528.75;5056604;28;1499;-66
2023/05/28 11:02:18;;;;;;;;;;;;;;;16.03;56.55;100529.31;5060857;28;1234;-59
2023/05/28 11:04:44;;;;;;;;;;;;;;;15.94;56.85;100524.66;5066245;28;876;-62
2023/05/28 11:07:10;;;;;;;;;;;;;;;17.07;57.17;100527.91;5074994;28;1914;-60
2023/05/28 11:09:35;;;;;;;;;;;;;;;17.12;57.10;100518.00;5058139;28;1359;-59
2023/05/28 11:12:02;;;;;;;;;;;;;;;16.66;57.58;100519.84;5076165;28;1054;-63
2023/05/28 11:14:35;;;;;;;;;;;;;;;16.40;57.66;100521.84;5075878;28;1146;-65
2023/05/28 11:17:01;;;;;;;;;;;;;;;16.28;57.43;100516.63;5080993;28;865;-66
2023/05/28 11:19:26;;;;;;;;;;;;;;;16.19;57.01;100515.56;5076144;28;1146;-64
2023/05/28 11:21:52;;;;;;;;;;;;;;;16.10;57.14;100511.75;5076207;28;1059;-64
2023/05/28 11:24:18;;;;;;;;;;;;;;;16.02;57.19;100513.09;5076050;28;1114;-62
2023/05/28 11:26:43;;;;;;;;;;;;;;;15.98;56.74;100512.03;5075263;28;1918;-63
2023/05/28 11:29:09;;;;;;;;;;;;;;;16.33;57.72;100513.06;5065400;28;907;-67
2023/05/28 11:31:41;;;;;;;;;;;;;;;17.47;57.05;100507.88;5050968;28;1237;-66
2023/05/28 11:34:07;;;;;;;;;;;;;;;16.68;58.12;100511.31;5062473;28;1150;-64
2023/05/28 11:36:42;;;;;;;;;;;;;;;16.49;57.73;100511.09;5066490;28;1150;-63
2023/05/28 11:39:07;;;;;;;;;;;;;;;16.28;57.43;100515.81;5071202;28;1357;-64
2023/05/28 11:41:33;;;;;;;;;;;;;;;16.19;57.33;100501.84;5062290;28;1011;-63
2023/05/28 11:43:58;;;;;;;;;;;;;;;16.06;57.27;100509.56;5060954;28;1325;-64
2023/05/28 11:46:24;;;;;;;;;;;;;;;16.87;57.88;100506.00;5061849;28;1597;-65
2023/05/28 11:48:50;;;;;;;;;;;;;;;17.28;57.17;100503.06;5063249;28;1918;-65
2023/05/28 11:51:18;;;;;;;;;;;;;;;16.66;57.97;100502.53;5068290;28;1018;-64
2023/05/28 11:53:43;;;;;;;;;;;;;;;16.46;57.76;100501.50;5076369;28;1079;-64
2023/05/28 11:56:09;;;;;;;;;;;;;;;16.41;57.36;100507.00;5069393;28;1081;-65
2023/05/28 11:58:40;;;;;;;;;;;;;;;16.28;57.18;100499.38;5073140;28;1050;-65
2023/05/28 12:01:05;;;;;;;;;;;;;;;16.19;57.17;100507.34;5065456;28;1286;-65
2023/05/28 12:03:31;;;;;;;;;;;;;;;16.04;57.12;100500.75;5072853;28;1167;-64
2023/05/28 12:05:56;;;;;;;;;;;;;;;16.02;56.80;100497.50;5071353;28;1156;-64
2023/05/28 12:08:22;;;;;;;;;;;;;;;15.96;56.77;100493.09;5069602;28;1985;-65
2023/05/28 12:10:47;;;;;;;;;;;;;;;15.93;56.50;100487.34;5073570;28;1030;-64
2023/05/28 12:13:13;;;;;;;;;;;;;;;15.93;56.87;100490.91;5069618;28;1105;-65
2023/05/28 12:15:39;;;;;;;;;;;;;;;17.23;57.64;100497.59;5068712;28;1058;-65
2023/05/28 12:18:04;;;;;;;;;;;;;;;16.83;58.09;100494.78;5071140;28;1085;-65
2023/05/28 12:20:42;;;;;;;;;;;;;;;16.48;58.18;100492.97;5065964;28;1142;-65
2023/05/28 12:23:12;;;;;;;;;;;;;;;16.31;57.60;100491.38;5072658;28;1063;-64
2023/05/28 12:25:43;;;;;;;;;;;;;;;16.21;57.38;100483.19;5078710;28;1074;-65
2023/05/28 12:28:19;;;;;;;;;;;;;;;16.08;57.27;100496.38;5077660;28;1982;-61
2023/05/28 12:30:45;;;;;;;;;;;;;;;15.99;57.06;100492.56;5077651;28;1201;-61
2023/05/28 12:33:10;;;;;;;;;;;;;;;15.97;57.04;100483.78;5079208;28;1150;-62
2023/05/28 12:35:36;;;;;;;;;;;;;;;16.18;58.19;100470.03;5079011;28;1174;-64
2023/05/28 12:38:02;;;;;;;;;;;;;;;17.48;57.46;100474.59;5078746;28;1061;-64
2023/05/28 12:40:27;;;;;;;;;;;;;;;16.95;58.04;100464.25;5074880;28;1173;-62
2023/05/28 12:42:53;;;;;;;;;;;;;;;16.55;58.29;100463.31;5069985;28;1126;-66
2023/05/28 12:45:18;;;;;;;;;;;;;;;16.42;57.75;100456.50;5078483;28;1023;-64
2023/05/28 12:47:44;;;;;;;;;;;;;;;16.31;57.71;100457.63;5078057;28;1906;-63
2023/05/28 12:50:10;;;;;;;;;;;;;;;16.18;57.48;100456.31;5075362;28;1175;-66